createdAt,value
2019-03-01T00:02:04.848Z,3.27
2019-03-01T00:04:53.969Z,2.80
2019-03-01T00:07:59.214Z,2.10
2019-03-01T00:10:39.950Z,2.57
2019-03-01T00:13:23.767Z,2.50
2019-03-01T00:15:58.460Z,2.27
2019-03-01T00:18:42.490Z,1.77
2019-03-01T00:21:20.041Z,3.50
2019-03-01T00:23:51.950Z,1.60
2019-03-01T00:26:39.111Z,1.10
2019-03-01T00:29:27.861Z,1.47
2019-03-01T00:32:16.405Z,1.60
2019-03-01T00:34:56.989Z,1.43
2019-03-01T00:37:45.658Z,1.97
2019-03-01T00:40:23.433Z,1.33
2019-03-01T00:43:07.305Z,1.40
2019-03-01T00:45:36.018Z,1.20
2019-03-01T00:48:04.654Z,1.40
2019-03-01T00:50:33.381Z,1.87
2019-03-01T00:53:05.141Z,1.50
2019-03-01T00:55:33.831Z,1.30
2019-03-01T00:58:02.552Z,1.30
2019-03-01T01:00:34.360Z,2.77
2019-03-01T01:03:03.068Z,1.67
2019-03-01T01:05:31.797Z,1.53
2019-03-01T01:08:00.476Z,1.83
2019-03-01T01:10:48.536Z,3.53
2019-03-01T01:13:17.263Z,3.70
2019-03-01T01:15:45.989Z,3.43
2019-03-01T01:18:15.177Z,1.70
2019-03-01T01:20:43.860Z,2.10
2019-03-01T01:23:12.501Z,2.23
2019-03-01T01:25:41.231Z,2.33
2019-03-01T01:28:09.913Z,1.93
2019-03-01T01:30:40.213Z,1.67
2019-03-01T01:33:08.935Z,2.47
2019-03-01T01:35:37.643Z,1.20
2019-03-01T01:38:06.333Z,2.17
2019-03-01T01:40:35.061Z,2.30
2019-03-01T01:43:03.694Z,1.07
2019-03-01T01:45:32.359Z,3.20
2019-03-01T01:48:01.118Z,1.77
2019-03-01T01:50:29.796Z,3.00
2019-03-01T01:52:58.529Z,2.50
2019-03-01T01:55:46.552Z,1.73
2019-03-01T01:58:15.229Z,2.07
2019-03-01T02:00:43.895Z,2.67
2019-03-01T02:03:12.651Z,1.67
2019-03-01T02:05:41.350Z,2.23
2019-03-01T02:08:11.060Z,3.43
2019-03-01T02:10:39.775Z,2.73
2019-03-01T02:13:10.706Z,2.00
2019-03-01T02:15:39.410Z,2.17
2019-03-01T02:18:08.155Z,2.33
2019-03-01T02:20:40.152Z,2.03
2019-03-01T02:23:08.876Z,3.33
2019-03-01T02:25:37.604Z,3.47
2019-03-01T02:28:06.269Z,2.87
2019-03-01T02:30:40.115Z,2.47
2019-03-01T02:33:08.847Z,2.67
2019-03-01T02:35:37.534Z,2.93
2019-03-01T02:38:06.600Z,4.80
2019-03-01T02:40:37.366Z,2.43
2019-03-01T02:43:06.143Z,3.60
2019-03-01T02:45:34.853Z,3.70
2019-03-01T02:48:03.598Z,7.57
2019-03-01T02:50:35.300Z,4.77
2019-03-01T02:53:04.086Z,3.70
2019-03-01T02:55:32.837Z,3.87
2019-03-01T02:58:03.128Z,3.37
2019-03-01T03:00:32.303Z,2.50
2019-03-01T03:03:01.046Z,3.80
2019-03-01T03:05:34.062Z,2.70
2019-03-01T03:08:04.408Z,2.97
2019-03-01T03:10:33.087Z,3.93
2019-03-01T03:13:04.485Z,3.60
2019-03-01T03:15:34.832Z,4.80
2019-03-01T03:18:03.549Z,2.63
2019-03-01T03:20:32.242Z,3.53
2019-03-01T03:23:01.801Z,3.60
2019-03-01T03:25:30.473Z,2.77
2019-03-01T03:27:59.146Z,3.33
2019-03-01T03:30:27.887Z,4.13
2019-03-01T03:32:56.616Z,3.10
2019-03-01T03:35:25.307Z,4.03
2019-03-01T03:37:54.028Z,4.70
2019-03-01T03:40:24.282Z,6.27
2019-03-01T03:42:52.983Z,3.37
2019-03-01T03:45:24.938Z,3.77
2019-03-01T03:47:53.645Z,3.40
2019-03-01T03:50:22.336Z,2.60
2019-03-01T03:52:51.025Z,4.63
2019-03-01T03:55:19.694Z,2.63
2019-03-01T03:57:48.421Z,2.90
2019-03-01T04:00:24.576Z,2.30
2019-03-01T04:02:53.270Z,3.07
2019-03-01T04:05:21.918Z,2.00
2019-03-01T04:07:50.641Z,3.00
2019-03-01T04:10:19.325Z,2.63
2019-03-01T04:12:48.049Z,2.50
2019-03-01T04:15:17.616Z,2.97
2019-03-01T04:17:46.305Z,3.43
2019-03-01T04:20:18.859Z,3.23
2019-03-01T04:22:47.542Z,2.80
2019-03-01T04:25:16.212Z,1.63
2019-03-01T04:27:44.891Z,1.70
2019-03-01T04:30:18.358Z,1.73
2019-03-01T04:32:47.045Z,1.47
2019-03-01T04:35:15.799Z,2.07
2019-03-01T04:37:44.487Z,1.43
2019-03-01T04:40:14.584Z,1.10
2019-03-01T04:42:46.456Z,1.00
2019-03-01T04:45:16.775Z,1.80
2019-03-01T04:47:45.495Z,2.77
2019-03-01T04:50:14.236Z,3.00
2019-03-01T04:52:42.931Z,3.33
2019-03-01T04:55:16.715Z,4.17
2019-03-01T04:57:45.701Z,2.83
2019-03-01T05:00:22.721Z,2.73
2019-03-01T05:02:51.475Z,2.67
2019-03-01T05:05:20.159Z,2.17
2019-03-01T05:07:48.961Z,2.83
2019-03-01T05:10:17.684Z,3.17
2019-03-01T05:12:46.367Z,2.93
2019-03-01T05:15:21.646Z,2.60
2019-03-01T05:17:50.311Z,4.17
2019-03-01T05:20:19.037Z,3.60
2019-03-01T05:22:47.750Z,2.87
2019-03-01T05:25:16.488Z,3.37
2019-03-01T05:27:45.218Z,2.67
2019-03-01T05:30:21.483Z,2.67
2019-03-01T05:32:53.223Z,4.20
2019-03-01T05:35:21.878Z,4.37
2019-03-01T05:37:50.672Z,4.97
2019-03-01T05:40:19.361Z,5.63
2019-03-01T05:42:48.017Z,5.73
2019-03-01T05:45:25.702Z,4.80
2019-03-01T05:47:54.382Z,5.47
2019-03-01T05:50:27.789Z,5.53
2019-03-01T05:52:56.204Z,6.37
2019-03-01T05:55:24.896Z,5.33
2019-03-01T05:58:22.657Z,7.50
2019-03-01T06:00:52.428Z,9.53
2019-03-01T06:03:40.803Z,8.63
2019-03-01T06:06:15.373Z,6.10
2019-03-01T06:08:59.165Z,7.13
2019-03-01T06:11:33.680Z,7.43
2019-03-01T06:14:07.411Z,8.60
2019-03-01T06:16:54.417Z,8.97
2019-03-01T06:19:53.846Z,5.27
2019-03-01T06:22:42.935Z,4.80
2019-03-01T06:25:31.829Z,6.03
2019-03-01T06:28:06.398Z,6.80
2019-03-01T06:30:56.386Z,7.63
2019-03-01T06:33:46.225Z,6.83
2019-03-01T06:36:43.344Z,7.10
2019-03-01T06:39:19.766Z,5.63
2019-03-01T06:41:57.469Z,5.60
2019-03-01T06:44:44.578Z,4.87
2019-03-01T06:47:23.309Z,6.83
2019-03-01T06:49:53.899Z,6.90
2019-03-01T06:52:25.078Z,7.83
2019-03-01T06:54:53.900Z,5.13
2019-03-01T06:57:22.622Z,5.57
2019-03-01T06:59:51.499Z,5.27
2019-03-01T07:05:02.522Z,4.73
2019-03-01T07:07:31.381Z,5.57
2019-03-01T07:10:00.237Z,4.10
2019-03-01T07:12:29.454Z,4.27
2019-03-01T07:15:01.430Z,6.03
2019-03-01T07:17:30.233Z,3.50
2019-03-01T07:19:58.929Z,5.70
2019-03-01T07:22:27.880Z,6.60
2019-03-01T07:24:56.817Z,5.80
2019-03-01T07:27:26.010Z,7.87
2019-03-01T07:29:58.133Z,6.87
2019-03-01T07:32:26.945Z,5.63
2019-03-01T07:34:55.810Z,7.03
2019-03-01T07:37:32.320Z,6.00
2019-03-01T07:40:01.388Z,6.13
2019-03-01T07:42:30.115Z,6.10
2019-03-01T07:44:59.363Z,6.07
2019-03-01T07:47:28.072Z,8.90
2019-03-01T07:49:57.041Z,7.80
2019-03-01T07:52:25.831Z,8.53
2019-03-01T07:54:54.483Z,6.60
2019-03-01T07:57:23.176Z,6.93
2019-03-01T07:59:51.905Z,6.10
2019-03-01T08:02:20.558Z,7.73
2019-03-01T08:04:50.193Z,5.90
2019-03-01T08:07:20.484Z,7.03
2019-03-01T08:09:49.347Z,5.07
2019-03-01T08:12:18.026Z,6.80
2019-03-01T08:14:46.719Z,7.07
2019-03-01T08:17:18.432Z,4.70
2019-03-01T08:19:47.121Z,5.87
2019-03-01T08:22:15.889Z,7.47
2019-03-01T08:24:46.541Z,10.77
2019-03-01T08:27:14.903Z,10.43
2019-03-01T08:29:43.638Z,8.87
2019-03-01T08:32:12.279Z,7.70
2019-03-01T08:34:40.949Z,7.03
2019-03-01T08:37:09.672Z,8.20
2019-03-01T08:39:39.792Z,9.20
2019-03-01T08:42:08.721Z,12.90
2019-03-01T08:44:37.456Z,9.37
2019-03-01T08:47:06.157Z,9.10
2019-03-01T08:49:34.826Z,9.83
2019-03-01T08:52:03.565Z,10.43
2019-03-01T08:54:32.222Z,8.63
2019-03-01T08:57:00.951Z,9.37
2019-03-01T08:59:31.230Z,11.50
2019-03-01T09:02:01.940Z,10.07
2019-03-01T09:04:37.529Z,12.13
2019-03-01T09:07:01.671Z,7.57
2019-03-01T09:09:30.529Z,12.77
2019-03-01T09:11:59.408Z,14.23
2019-03-01T09:14:28.146Z,14.83
2019-03-01T09:16:56.839Z,8.90
2019-03-01T09:19:26.230Z,11.30
2019-03-01T09:21:55.116Z,13.33
2019-03-01T09:24:25.800Z,10.07
2019-03-01T09:26:55.138Z,9.93
2019-03-01T09:29:24.517Z,9.63
2019-03-01T09:31:54.247Z,7.53
2019-03-01T09:34:23.517Z,14.70
2019-03-01T09:36:54.899Z,8.77
2019-03-01T09:39:25.092Z,8.27
2019-03-01T09:42:02.697Z,15.13
2019-03-01T09:44:43.522Z,8.27
2019-03-01T09:47:14.282Z,14.30
2019-03-01T09:49:42.976Z,12.40
2019-03-01T09:52:11.708Z,12.43
2019-03-01T09:54:40.402Z,10.67
2019-03-01T09:57:09.114Z,10.30
2019-03-01T09:59:37.800Z,8.67
2019-03-01T10:02:06.519Z,11.47
2019-03-01T10:04:35.152Z,11.43
2019-03-01T10:07:03.920Z,11.13
2019-03-01T10:09:32.622Z,10.83
2019-03-01T10:12:01.317Z,15.03
2019-03-01T10:14:30.046Z,13.60
2019-03-01T10:16:58.727Z,9.03
2019-03-01T10:19:27.417Z,10.80
2019-03-01T10:21:56.154Z,10.17
2019-03-01T10:24:26.395Z,10.33
2019-03-01T10:26:55.109Z,12.27
2019-03-01T10:29:23.831Z,11.77
2019-03-01T10:31:53.545Z,10.60
2019-03-01T10:34:22.238Z,9.13
2019-03-01T10:36:50.956Z,10.53
2019-03-01T10:39:19.641Z,8.87
2019-03-01T10:41:48.759Z,12.37
2019-03-01T10:44:17.554Z,12.57
2019-03-01T10:46:49.169Z,12.03
2019-03-01T10:49:18.683Z,13.20
2019-03-01T10:51:47.413Z,11.00
2019-03-01T10:54:16.094Z,8.13
2019-03-01T10:56:44.768Z,10.67
2019-03-01T10:59:13.476Z,11.77
2019-03-01T11:01:42.177Z,10.10
2019-03-01T11:04:10.856Z,9.93
2019-03-01T11:06:39.595Z,8.33
2019-03-01T11:09:08.710Z,8.33
2019-03-01T11:11:37.384Z,10.87
2019-03-01T11:14:10.730Z,10.80
2019-03-01T11:16:41.012Z,11.97
2019-03-01T11:19:09.664Z,10.03
2019-03-01T11:21:38.394Z,8.53
2019-03-01T11:24:07.080Z,9.27
2019-03-01T11:26:35.785Z,10.07
2019-03-01T11:29:04.529Z,10.77
2019-03-01T11:31:36.398Z,12.00
2019-03-01T11:34:05.113Z,10.97
2019-03-01T11:36:33.854Z,11.60
2019-03-01T11:39:02.637Z,9.40
2019-03-01T11:41:31.317Z,7.30
2019-03-01T11:44:00.050Z,8.80
2019-03-01T11:46:28.725Z,10.37
2019-03-01T11:48:57.404Z,11.57
2019-03-01T11:51:27.781Z,8.33
2019-03-01T11:53:56.549Z,8.97
2019-03-01T11:56:25.269Z,8.40
2019-03-01T11:58:53.966Z,9.60
2019-03-01T12:01:22.692Z,7.63
2019-03-01T12:03:51.390Z,8.07
2019-03-01T12:06:20.113Z,9.53
2019-03-01T12:08:48.798Z,8.30
2019-03-01T12:11:17.487Z,10.23
2019-03-01T12:13:46.206Z,9.50
2019-03-01T12:16:14.902Z,11.33
2019-03-01T12:18:43.584Z,9.40
2019-03-01T12:21:12.320Z,9.73
2019-03-01T12:23:41.021Z,9.40
2019-03-01T12:26:09.661Z,7.53
2019-03-01T12:28:38.405Z,8.87
2019-03-01T12:31:07.084Z,9.57
2019-03-01T12:33:35.779Z,10.13
2019-03-01T12:36:04.550Z,9.93
2019-03-01T12:38:33.252Z,9.07
2019-03-01T12:41:02.974Z,10.37
2019-03-01T12:43:31.716Z,7.73
2019-03-01T12:46:00.398Z,11.63
2019-03-01T12:48:33.153Z,10.33
2019-03-01T12:50:59.416Z,11.57
2019-03-01T12:53:28.113Z,11.70
2019-03-01T12:55:58.400Z,13.03
2019-03-01T12:58:27.136Z,12.77
2019-03-01T13:00:55.823Z,10.47
2019-03-01T13:03:25.344Z,13.87
2019-03-01T13:05:54.048Z,12.73
2019-03-01T13:08:24.337Z,13.27
2019-03-01T13:10:53.051Z,11.83
2019-03-01T13:13:21.800Z,11.40
2019-03-01T13:15:52.265Z,13.57
2019-03-01T13:18:22.403Z,13.57
2019-03-01T13:20:51.131Z,11.57
2019-03-01T13:23:19.823Z,10.50
2019-03-01T13:25:48.510Z,11.80
2019-03-01T13:28:17.253Z,14.77
2019-03-01T13:30:45.915Z,12.93
2019-03-01T13:33:14.597Z,14.03
2019-03-01T13:35:43.323Z,11.73
2019-03-01T13:38:12.009Z,12.40
2019-03-01T13:40:40.746Z,9.93
2019-03-01T13:43:09.522Z,12.97
2019-03-01T13:45:38.217Z,12.30
2019-03-01T13:48:06.909Z,10.07
2019-03-01T13:50:38.352Z,10.50
2019-03-01T13:53:06.664Z,10.60
2019-03-01T13:55:35.414Z,11.37
2019-03-01T13:58:04.169Z,12.10
2019-03-01T14:00:34.402Z,9.47
2019-03-01T14:03:03.090Z,12.50
2019-03-01T14:05:31.855Z,11.00
2019-03-01T14:08:08.626Z,12.83
2019-03-01T14:10:30.884Z,13.13
2019-03-01T14:12:59.601Z,13.67
2019-03-01T14:15:29.840Z,12.07
2019-03-01T14:18:01.175Z,11.97
2019-03-01T14:20:31.434Z,15.17
2019-03-01T14:23:00.102Z,14.33
2019-03-01T14:25:28.791Z,14.80
2019-03-01T14:27:57.546Z,14.93
2019-03-01T14:30:30.236Z,10.63
2019-03-01T14:32:59.063Z,13.70
2019-03-01T14:35:27.763Z,12.17
2019-03-01T14:37:56.471Z,14.40
2019-03-01T14:40:26.683Z,13.30
2019-03-01T14:42:55.676Z,14.80
2019-03-01T14:45:34.830Z,10.87
2019-03-01T14:48:04.964Z,12.23
2019-03-01T14:50:34.766Z,14.57
2019-03-01T14:53:03.610Z,11.93
2019-03-01T14:55:44.401Z,12.70
2019-03-01T14:58:31.176Z,14.63
2019-03-01T15:01:08.755Z,14.77
2019-03-01T15:03:38.548Z,14.13
2019-03-01T15:06:07.681Z,14.73
2019-03-01T15:08:40.444Z,12.10
2019-03-01T15:11:10.336Z,13.97
2019-03-01T15:13:39.132Z,11.47
2019-03-01T15:16:08.218Z,10.27
2019-03-01T15:18:39.981Z,12.80
2019-03-01T15:21:12.559Z,10.77
2019-03-01T15:23:41.227Z,12.73
2019-03-01T15:26:09.926Z,11.83
2019-03-01T15:28:53.673Z,10.63
2019-03-01T15:31:20.174Z,16.00
2019-03-01T15:33:50.539Z,13.77
2019-03-01T15:36:19.339Z,14.13
2019-03-01T15:38:48.053Z,13.97
2019-03-01T15:41:18.301Z,15.83
2019-03-01T15:43:50.150Z,15.63
2019-03-01T15:46:20.684Z,13.20
2019-03-01T15:48:49.197Z,12.90
2019-03-01T15:51:18.770Z,15.77
2019-03-01T15:53:47.444Z,19.13
2019-03-01T15:56:16.145Z,18.63
2019-03-01T15:58:46.412Z,17.40
2019-03-01T16:01:15.209Z,17.97
2019-03-01T16:03:43.886Z,19.37
2019-03-01T16:06:17.292Z,18.77
2019-03-01T16:08:43.878Z,21.67
2019-03-01T16:11:13.665Z,21.17
2019-03-01T16:13:47.902Z,17.63
2019-03-01T16:16:14.579Z,21.77
2019-03-01T16:18:43.303Z,22.77
2019-03-01T16:21:13.606Z,18.33
2019-03-01T16:23:43.870Z,15.67
2019-03-01T16:26:13.043Z,22.47
2019-03-01T16:28:41.773Z,25.20
2019-03-01T16:31:10.501Z,22.77
2019-03-01T16:33:39.177Z,22.67
2019-03-01T16:36:09.476Z,26.63
2019-03-01T16:38:40.869Z,21.23
2019-03-01T16:41:08.584Z,24.90
2019-03-01T16:43:37.747Z,22.43
2019-03-01T16:46:06.432Z,22.93
2019-03-01T16:48:36.939Z,25.30
2019-03-01T16:51:05.674Z,25.60
2019-03-01T16:53:36.692Z,24.13
2019-03-01T16:56:04.711Z,24.50
2019-03-01T16:58:33.453Z,32.37
2019-03-01T17:01:02.157Z,29.13
2019-03-01T17:03:31.285Z,20.77
2019-03-01T17:06:00.017Z,25.03
2019-03-01T17:08:28.687Z,21.97
2019-03-01T17:10:57.573Z,22.40
2019-03-01T17:13:28.114Z,23.67
2019-03-01T17:15:56.950Z,29.27
2019-03-01T17:18:25.648Z,26.47
2019-03-01T17:20:54.379Z,24.97
2019-03-01T17:23:23.024Z,26.10
2019-03-01T17:25:51.720Z,29.13
2019-03-01T17:28:23.537Z,26.83
2019-03-01T17:30:51.764Z,28.50
2019-03-01T17:33:20.537Z,25.37
2019-03-01T17:35:49.264Z,27.47
2019-03-01T17:38:17.941Z,27.63
2019-03-01T17:40:49.305Z,22.30
2019-03-01T17:43:18.406Z,25.23
2019-03-01T17:45:47.050Z,22.57
2019-03-01T17:48:18.436Z,24.10
2019-03-01T17:50:46.189Z,35.63
2019-03-01T17:53:16.463Z,29.67
2019-03-01T17:55:45.112Z,25.77
2019-03-01T17:58:13.860Z,25.23
2019-03-01T18:00:47.669Z,23.10
2019-03-01T18:03:18.832Z,21.77
2019-03-01T18:05:49.649Z,27.80
2019-03-01T18:08:17.915Z,16.67
2019-03-01T18:10:46.564Z,23.43
2019-03-01T18:13:15.345Z,18.57
2019-03-01T18:15:45.134Z,21.30
2019-03-01T18:18:14.432Z,24.60
2019-03-01T18:20:43.160Z,19.07
2019-03-01T18:23:11.881Z,12.37
2019-03-01T18:25:40.571Z,19.07
2019-03-01T18:28:09.311Z,15.90
2019-03-01T18:30:38.044Z,15.80
2019-03-01T18:33:08.313Z,17.67
2019-03-01T18:35:37.064Z,18.57
2019-03-01T18:38:05.754Z,15.20
2019-03-01T18:40:36.429Z,10.97
2019-03-01T18:43:04.827Z,14.57
2019-03-01T18:45:38.443Z,16.03
2019-03-01T18:48:05.061Z,14.73
2019-03-01T18:50:39.334Z,12.90
2019-03-01T18:53:08.243Z,16.23
2019-03-01T18:55:36.919Z,17.33
2019-03-01T18:58:05.885Z,13.33
2019-03-01T19:00:42.623Z,12.33
2019-03-01T19:03:11.346Z,22.23
2019-03-01T19:05:41.283Z,11.00
2019-03-01T19:08:10.188Z,15.97
2019-03-01T19:10:41.046Z,14.73
2019-03-01T19:13:10.101Z,14.77
2019-03-01T19:15:41.199Z,20.70
2019-03-01T19:18:09.968Z,16.27
2019-03-01T19:20:42.471Z,16.60
2019-03-01T19:23:11.366Z,15.00
2019-03-01T19:25:41.922Z,13.80
2019-03-01T19:28:12.015Z,15.03
2019-03-01T19:30:42.249Z,14.30
2019-03-01T19:33:30.369Z,14.23
2019-03-01T19:36:03.264Z,9.00
2019-03-01T19:38:32.335Z,13.27
2019-03-01T19:41:01.099Z,14.87
2019-03-01T19:43:29.981Z,13.50
2019-03-01T19:46:01.638Z,14.97
2019-03-01T19:48:30.388Z,12.17
2019-03-01T19:51:01.916Z,18.13
2019-03-01T19:53:29.816Z,15.77
2019-03-01T19:56:02.002Z,14.70
2019-03-01T19:58:30.921Z,16.70
2019-03-01T20:01:01.360Z,16.37
2019-03-01T20:03:30.102Z,19.67
2019-03-01T20:06:04.477Z,11.73
2019-03-01T20:08:39.299Z,19.57
2019-03-01T20:11:08.022Z,18.23
2019-03-01T20:13:38.655Z,17.07
2019-03-01T20:16:08.677Z,10.07
2019-03-01T20:18:41.740Z,16.00
2019-03-01T20:21:12.292Z,13.47
2019-03-01T20:23:41.015Z,10.70
2019-03-01T20:26:09.753Z,10.90
2019-03-01T20:28:38.536Z,16.00
2019-03-01T20:31:08.615Z,10.47
2019-03-01T20:33:37.345Z,11.63
2019-03-01T20:36:06.052Z,10.33
2019-03-01T20:38:37.002Z,11.50
2019-03-01T20:41:05.349Z,11.43
2019-03-01T20:43:37.908Z,10.50
2019-03-01T20:46:07.194Z,17.93
2019-03-01T20:48:36.353Z,17.73
2019-03-01T20:51:07.110Z,12.53
2019-03-01T20:53:35.828Z,11.83
2019-03-01T20:56:04.551Z,11.87
2019-03-01T20:58:35.895Z,11.67
2019-03-01T21:01:03.851Z,12.27
2019-03-01T21:03:32.531Z,23.00
2019-03-01T21:06:01.689Z,13.20
2019-03-01T21:08:31.631Z,22.70
2019-03-01T21:11:00.704Z,11.80
2019-03-01T21:13:29.414Z,15.70
2019-03-01T21:15:58.593Z,12.73
2019-03-01T21:18:27.282Z,12.37
2019-03-01T21:20:55.951Z,12.40
2019-03-01T21:23:26.589Z,15.47
2019-03-01T21:25:55.496Z,13.30
2019-03-01T21:28:24.181Z,22.77
2019-03-01T21:30:55.706Z,13.17
2019-03-01T21:33:27.426Z,23.53
2019-03-01T21:35:55.205Z,16.13
2019-03-01T21:38:23.957Z,16.57
2019-03-01T21:40:54.721Z,14.47
2019-03-01T21:43:42.441Z,17.53
2019-03-01T21:46:11.297Z,19.17
2019-03-01T21:48:40.504Z,17.93
2019-03-01T21:51:09.455Z,13.17
2019-03-01T21:53:39.877Z,11.70
2019-03-01T21:56:08.806Z,14.83
2019-03-01T21:58:41.944Z,20.80
2019-03-01T22:01:09.645Z,22.60
2019-03-01T22:03:41.586Z,18.73
2019-03-01T22:06:10.409Z,19.37
2019-03-01T22:08:40.190Z,18.20
2019-03-01T22:11:13.328Z,17.33
2019-03-01T22:13:43.648Z,20.27
2019-03-01T22:16:16.673Z,14.07
2019-03-01T22:18:45.441Z,11.87
2019-03-01T22:21:22.637Z,17.50
2019-03-01T22:23:47.601Z,19.20
2019-03-01T22:26:17.931Z,14.20
2019-03-01T22:28:48.879Z,14.10
2019-03-01T22:31:17.868Z,21.17
2019-03-01T22:33:52.649Z,19.77
2019-03-01T22:36:18.234Z,19.40
2019-03-01T22:38:47.390Z,25.80
2019-03-01T22:41:17.772Z,18.37
2019-03-01T22:43:47.674Z,21.40
2019-03-01T22:46:16.445Z,18.17
2019-03-01T22:48:48.937Z,13.40
2019-03-01T22:51:17.958Z,18.67
2019-03-01T22:53:46.064Z,16.83
2019-03-01T22:56:14.873Z,10.67
2019-03-01T22:58:43.558Z,14.30
2019-03-01T23:01:15.858Z,20.00
2019-03-01T23:03:43.158Z,19.73
2019-03-01T23:06:14.702Z,20.17
2019-03-01T23:08:42.569Z,25.50
2019-03-01T23:11:11.383Z,20.60
2019-03-01T23:13:40.094Z,16.93
2019-03-01T23:16:08.781Z,15.10
2019-03-01T23:18:37.612Z,17.87
2019-03-01T23:21:07.868Z,22.10
2019-03-01T23:23:36.562Z,21.37
2019-03-01T23:26:08.433Z,31.60
2019-03-01T23:28:37.123Z,35.67
2019-03-01T23:31:07.469Z,38.50
2019-03-01T23:33:41.950Z,41.33
2019-03-01T23:36:10.634Z,40.60
2019-03-01T23:38:39.306Z,43.20
2019-03-01T23:41:11.331Z,45.63
2019-03-01T23:43:39.927Z,42.90
2019-03-01T23:46:08.635Z,43.17
2019-03-01T23:48:37.377Z,35.23
2019-03-01T23:51:06.751Z,23.13
2019-03-01T23:53:36.423Z,30.10
2019-03-01T23:56:05.165Z,22.30
2019-03-01T23:58:33.861Z,23.83
